• Join FlightAware (Why Join?)
  • Login
  • US Flag 
07:48AM EST


 

Airport Tracker/Info


-or-


 

Live Flight TrackerFlight Track Log ✈ N448ND ✈ 08-May-2014 ✈ KFPR - KPBI

Flight Track Log - Related Links

Times and Time Zones

All times are in EDT time to prevent confusion due to time zone crossing. See the N448ND flight status page for this flight to view local times or setup timezone preferences in your user account.

Time Position Orientation Groundspeed Altitude Reporting Facility
EDT Latitude Longitude Course Direction KTS MPH feet Rate Location/Type
06:40PM 27.4839 -80.3578 163° South 74 85 400  Level Miami Center
06:41PM 27.4811 -80.3344 98° East 76 87 1,000 600 Climbing Miami Center
06:42PM 27.4803 -80.3097 92° East 76 87 1,700 540 Climbing Miami Center
06:43PM 27.4806 -80.2881 89° East 75 86 2,200 480 Climbing Miami Center
06:44PM 27.4811 -80.2647 88° East 75 86 2,700 480 Climbing Miami Center
06:45PM 27.3723 -80.3298 163° South  Level Estimated
06:45PM 27.4611 -80.2600 168° South 79 91 3,200  Level Miami Center
06:46PM 27.4386 -80.2608 182° South 79 91 3,800 360 Climbing Miami Center
06:47PM 27.4156 -80.2600 178° South 78 90 4,000 60 Climbing Miami Center
06:48PM 27.3878 -80.2614 183° South 90 104 4,000  Level Miami Center
06:49PM 27.3631 -80.2581 173° South 91 105 4,000  Level Miami Center
06:50PM 27.3369 -80.2531 170° South 91 105 4,000  Level Miami Center
06:51PM 27.3111 -80.2478 170° South 91 105 4,000  Level Miami Center
06:53PM 27.2856 -80.2411 167° South 91 105 4,000  Level Miami Center
06:54PM 27.2603 -80.2358 169° South 90 104 4,000  Level Miami Center
06:55PM 27.2367 -80.2283 164° South 90 104 4,000  Level Miami Center
06:56PM 27.2108 -80.2228 169° South 91 105 4,000  Level Miami Center
06:57PM 27.1853 -80.2161 167° South 90 104 4,000  Level Miami Center
06:58PM 27.1603 -80.2083 165° South 90 104 4,000  Level Miami Center
06:59PM 27.1356 -80.2022 168° South 86 99 4,000  Level Miami Center
07:00PM 27.1125 -80.1972 169° South 85 98 4,100  Climbing Miami Center
07:01PM 27.0886 -80.1953 176° South 86 99 4,000 -60 Descending Miami Center
07:02PM 27.0642 -80.2158 217° Southwest 100 115 4,000  Level Miami Center
07:03PM 27.0403 -80.2339 214° Southwest 100 115 4,000  Level Miami Center
07:04PM 27.0164 -80.2528 215° Southwest 100 115 4,000  Level Miami Center
07:05PM 26.9944 -80.2694 214° Southwest 100 115 4,000  Level Miami Center
07:06PM 26.9703 -80.2889 216° Southwest 100 115 4,100  Climbing Miami Center
07:07PM 26.9456 -80.3081 215° Southwest 101 116 4,000 -60 Descending Miami Center
07:08PM 26.9214 -80.3269 215° Southwest 102 117 4,000  Level Miami Center
07:09PM 26.8978 -80.3436 212° Southwest 98 113 4,000 -240 Level Miami Center
07:10PM 26.8711 -80.3542 199° South 100 115 3,600 -420 Descending Miami Center
07:11PM 26.8442 -80.3594 190° South 101 116 3,200 -420 Descending Miami Center